Bethlehem, Iowa
Current Conditions -  °F | °C
As of 2:55 AM on Saturday 25 Oct 2014 (Local Time) from KCNC Reporting Station
Haze Haze  
Wind Chill: 54°   Ceiling: Unl
Heat Index: 54°   Visibility: 4mi
Dew Point: 54°   Wind: 7mph
Humidity: 100%   Direction: 310°NW
Pressure: 30"   Gusts: NA
Location:  40.9063°N, 93.1553°W
Report Text: KCNC 250755Z AUTO 31006KT 4SM BR CLR 12/12 A3000 RMK AO2
Loading
Personal Weather Stations






























Interactive Weather Map
Tropical Storm Tracking
New forecast layout! Learn more

10-Day Weather Forecast

Advertisements
Track Severe Weather on mobile